createdAt,value
2019-04-10T00:00:47.810Z,94.83
2019-04-10T00:03:28.132Z,105.07
2019-04-10T00:05:47.969Z,96.80
2019-04-10T00:08:17.768Z,98.43
2019-04-10T00:10:46.235Z,89.20
2019-04-10T00:13:14.528Z,94.37
2019-04-10T00:15:42.831Z,87.50
2019-04-10T00:18:11.393Z,90.43
2019-04-10T00:20:40.601Z,93.03
2019-04-10T00:23:09.015Z,79.23
2019-04-10T00:25:37.303Z,75.40
2019-04-10T00:28:05.602Z,82.20
2019-04-10T00:30:33.886Z,86.03
2019-04-10T00:33:02.721Z,92.63
2019-04-10T00:35:31.746Z,92.47
2019-04-10T00:38:00.178Z,96.87
2019-04-10T00:40:28.503Z,95.63
2019-04-10T00:42:57.161Z,91.63
2019-04-10T00:45:27.155Z,84.37
2019-04-10T00:47:55.834Z,80.13
2019-04-10T00:50:24.498Z,81.77
2019-04-10T00:52:52.910Z,83.60
2019-04-10T00:55:21.797Z,83.87
2019-04-10T00:57:50.263Z,83.60
2019-04-10T01:00:19.104Z,80.93
2019-04-10T01:02:47.848Z,75.50
2019-04-10T01:05:17.309Z,76.70
2019-04-10T01:07:46.991Z,76.50
2019-04-10T01:10:15.574Z,78.70
2019-04-10T01:12:44.085Z,74.60
2019-04-10T01:15:12.440Z,71.40
2019-04-10T01:17:40.739Z,75.83
2019-04-10T01:20:09.181Z,75.73
2019-04-10T01:22:37.716Z,72.97
2019-04-10T01:25:06.743Z,69.20
2019-04-10T01:27:36.144Z,68.87
2019-04-10T01:30:07.149Z,73.87
2019-04-10T01:32:36.412Z,69.73
2019-04-10T01:35:06.392Z,65.87
2019-04-10T01:37:46.649Z,66.43
2019-04-10T01:40:06.645Z,65.67
2019-04-10T01:42:35.157Z,66.03
2019-04-10T01:45:04.949Z,61.77
2019-04-10T01:47:33.730Z,63.03
2019-04-10T01:50:02.274Z,63.80
2019-04-10T01:52:31.131Z,62.70
2019-04-10T01:54:59.747Z,63.87
2019-04-10T01:57:28.449Z,63.60
2019-04-10T01:59:57.156Z,62.73
2019-04-10T02:02:27.371Z,57.13
2019-04-10T02:04:56.772Z,59.73
2019-04-10T02:07:26.403Z,55.63
2019-04-10T02:09:56.037Z,57.73
2019-04-10T02:12:24.634Z,59.80
2019-04-10T02:14:52.910Z,60.20
2019-04-10T02:17:22.285Z,53.57
2019-04-10T02:19:50.956Z,51.07
2019-04-10T02:22:20.414Z,52.13
2019-04-10T02:24:49.356Z,53.83
2019-04-10T02:27:18.299Z,52.37
2019-04-10T02:29:46.845Z,51.40
2019-04-10T02:32:16.511Z,50.07
2019-04-10T02:34:46.846Z,52.53
2019-04-10T02:37:15.387Z,49.50
2019-04-10T02:39:47.906Z,46.57
2019-04-10T02:42:14.391Z,46.17
2019-04-10T02:44:44.021Z,46.90
2019-04-10T02:47:13.101Z,48.77
2019-04-10T02:49:42.698Z,45.63
2019-04-10T02:52:12.825Z,46.63
2019-04-10T02:54:41.847Z,47.87
2019-04-10T02:57:11.356Z,44.00
2019-04-10T02:59:39.897Z,45.27
2019-04-10T03:02:08.664Z,42.80
2019-04-10T03:04:37.331Z,42.43
2019-04-10T03:07:07.390Z,41.10
2019-04-10T03:09:49.713Z,42.23
2019-04-10T03:12:06.385Z,42.27
2019-04-10T03:14:36.786Z,39.97
2019-04-10T03:17:06.007Z,39.37
2019-04-10T03:19:34.447Z,38.00
2019-04-10T03:22:03.795Z,39.03
2019-04-10T03:24:32.397Z,39.03
2019-04-10T03:27:01.762Z,36.83
2019-04-10T03:29:30.189Z,34.73
2019-04-10T03:32:01.906Z,38.13
2019-04-10T03:34:33.723Z,35.37
2019-04-10T03:37:01.659Z,38.33
2019-04-10T03:39:33.518Z,34.27
2019-04-10T03:42:00.976Z,36.40
2019-04-10T03:44:30.222Z,34.80
2019-04-10T03:46:58.813Z,35.43
2019-04-10T03:49:27.622Z,36.43
2019-04-10T03:51:56.723Z,37.23
2019-04-10T03:54:28.092Z,33.90
2019-04-10T03:56:56.539Z,34.20
2019-04-10T03:59:24.810Z,31.00
2019-04-10T04:01:53.433Z,33.37
2019-04-10T04:04:21.891Z,30.57
2019-04-10T04:06:50.299Z,33.17
2019-04-10T04:09:19.609Z,29.97
2019-04-10T04:11:48.181Z,31.40
2019-04-10T04:14:16.601Z,30.63
2019-04-10T04:16:44.933Z,30.87
2019-04-10T04:19:13.617Z,27.23
2019-04-10T04:21:41.921Z,30.30
2019-04-10T04:24:11.348Z,29.53
2019-04-10T04:26:39.807Z,30.10
2019-04-10T04:29:08.203Z,28.13
2019-04-10T04:31:36.787Z,29.57
2019-04-10T04:34:06.146Z,30.43
2019-04-10T04:36:35.221Z,26.70
2019-04-10T04:39:18.012Z,26.97
2019-04-10T04:41:35.953Z,26.07
2019-04-10T04:44:04.286Z,29.17
2019-04-10T04:46:32.894Z,26.03
2019-04-10T04:49:02.060Z,26.80
2019-04-10T04:51:30.644Z,25.93
2019-04-10T04:53:59.024Z,25.33
2019-04-10T04:56:28.214Z,26.13
2019-04-10T04:58:56.588Z,24.57
2019-04-10T05:01:25.214Z,23.63
2019-04-10T05:03:53.518Z,25.03
2019-04-10T05:06:22.255Z,27.27
2019-04-10T05:08:50.799Z,28.97
2019-04-10T05:11:20.082Z,37.77
2019-04-10T05:13:49.076Z,34.47
2019-04-10T05:16:18.643Z,32.10
2019-04-10T05:18:50.410Z,26.73
2019-04-10T05:21:19.171Z,30.00
2019-04-10T05:23:47.604Z,29.03
2019-04-10T05:26:16.567Z,27.60
2019-04-10T05:28:45.272Z,35.03
2019-04-10T05:31:13.557Z,28.63
2019-04-10T05:33:42.144Z,27.93
2019-04-10T05:36:10.461Z,30.23
2019-04-10T05:38:38.830Z,27.83
2019-04-10T05:41:07.129Z,28.43
2019-04-10T05:43:36.225Z,26.73
2019-04-10T05:46:04.924Z,27.70
2019-04-10T05:48:33.740Z,26.53
2019-04-10T05:51:05.639Z,27.00
2019-04-10T05:53:32.487Z,26.63
2019-04-10T05:56:01.519Z,26.07
2019-04-10T05:58:31.415Z,26.53
2019-04-10T06:01:01.425Z,28.67
2019-04-10T06:03:30.312Z,24.20
2019-04-10T06:06:01.002Z,24.57
2019-04-10T06:08:28.713Z,26.50
2019-04-10T06:10:58.133Z,22.97
2019-04-10T06:13:27.674Z,26.13
2019-04-10T06:15:56.450Z,22.80
2019-04-10T06:18:25.006Z,22.97
2019-04-10T06:20:54.488Z,25.67
2019-04-10T06:23:23.399Z,23.93
2019-04-10T06:25:52.125Z,25.57
2019-04-10T06:28:21.346Z,20.40
2019-04-10T06:30:50.582Z,20.13
2019-04-10T06:33:20.027Z,20.30
2019-04-10T06:35:48.961Z,19.50
2019-04-10T06:38:17.412Z,18.63
2019-04-10T06:40:46.101Z,23.63
2019-04-10T06:43:15.018Z,21.47
2019-04-10T06:45:44.023Z,18.73
2019-04-10T06:48:13.058Z,30.93
2019-04-10T06:50:41.780Z,38.53
2019-04-10T06:53:10.435Z,45.77
2019-04-10T06:55:38.721Z,48.00
2019-04-10T06:58:07.871Z,49.00
2019-04-10T07:00:36.929Z,48.77
2019-04-10T07:03:06.506Z,44.13
2019-04-10T07:05:41.372Z,43.43
2019-04-10T07:08:12.398Z,41.13
2019-04-10T07:10:48.260Z,40.80
2019-04-10T07:13:08.617Z,43.60
2019-04-10T07:15:35.804Z,42.80
2019-04-10T07:18:04.575Z,46.50
2019-04-10T07:20:33.691Z,48.77
2019-04-10T07:23:03.042Z,45.13
2019-04-10T07:25:32.023Z,41.97
2019-04-10T07:28:01.338Z,51.50
2019-04-10T07:30:30.551Z,43.27
2019-04-10T07:32:59.333Z,46.40
2019-04-10T07:35:28.608Z,48.77
2019-04-10T07:37:58.486Z,47.23
2019-04-10T07:40:28.308Z,47.57
2019-04-10T07:42:57.054Z,51.87
2019-04-10T07:45:27.099Z,51.47
2019-04-10T07:47:55.948Z,53.17
2019-04-10T07:50:24.323Z,56.17
2019-04-10T07:52:52.640Z,57.00
2019-04-10T07:55:22.370Z,58.30
2019-04-10T07:57:51.760Z,56.30
2019-04-10T08:00:20.498Z,51.47
2019-04-10T08:02:49.167Z,37.80
2019-04-10T08:05:18.871Z,37.13
2019-04-10T08:07:47.332Z,38.90
2019-04-10T08:10:15.999Z,42.17
2019-04-10T08:12:49.061Z,39.30
2019-04-10T08:15:14.395Z,46.40
2019-04-10T08:17:42.977Z,37.30
2019-04-10T08:20:11.548Z,41.80
2019-04-10T08:22:40.130Z,52.47
2019-04-10T08:25:08.937Z,59.47
2019-04-10T08:27:38.491Z,55.73
2019-04-10T08:30:08.540Z,55.27
2019-04-10T08:32:51.025Z,49.27
2019-04-10T08:35:07.505Z,51.63
2019-04-10T08:37:36.790Z,47.10
2019-04-10T08:40:07.464Z,47.70
2019-04-10T08:42:37.323Z,49.20
2019-04-10T08:45:07.122Z,43.37
2019-04-10T08:47:35.803Z,43.03
2019-04-10T08:50:05.664Z,43.33
2019-04-10T08:52:34.722Z,46.00
2019-04-10T08:55:03.847Z,43.77
2019-04-10T08:57:32.218Z,40.43
2019-04-10T09:00:00.523Z,42.63
2019-04-10T09:02:28.810Z,50.73
2019-04-10T09:04:57.333Z,45.50
2019-04-10T09:07:26.353Z,46.67
2019-04-10T09:09:54.730Z,46.80
2019-04-10T09:12:23.954Z,42.67
2019-04-10T09:14:52.311Z,42.33
2019-04-10T09:17:21.467Z,40.10
2019-04-10T09:19:50.118Z,39.40
2019-04-10T09:22:18.413Z,38.13
2019-04-10T09:24:46.776Z,38.93
2019-04-10T09:27:15.188Z,35.80
2019-04-10T09:29:44.528Z,37.23
2019-04-10T09:32:12.929Z,45.20
2019-04-10T09:34:42.471Z,54.17
2019-04-10T09:37:11.950Z,48.07
2019-04-10T09:39:41.298Z,45.50
2019-04-10T09:42:10.660Z,44.77
2019-04-10T09:44:40.080Z,41.07
2019-04-10T09:47:09.710Z,43.17
2019-04-10T09:49:43.148Z,42.00
2019-04-10T09:52:08.571Z,38.57
2019-04-10T09:54:36.875Z,39.33
2019-04-10T09:57:05.232Z,37.50
2019-04-10T09:59:36.943Z,34.10
2019-04-10T10:02:03.657Z,38.40
2019-04-10T10:04:33.272Z,48.07
2019-04-10T10:07:02.055Z,62.43
2019-04-10T10:09:30.903Z,55.07
2019-04-10T10:11:59.199Z,51.57
2019-04-10T10:14:28.544Z,48.57
2019-04-10T10:16:58.043Z,47.23
2019-04-10T10:19:26.454Z,45.50
2019-04-10T10:21:54.747Z,43.87
2019-04-10T10:24:23.059Z,54.10
2019-04-10T10:26:51.519Z,70.33
2019-04-10T10:29:19.903Z,67.23
2019-04-10T10:31:49.778Z,63.27
2019-04-10T10:34:18.460Z,61.37
2019-04-10T10:36:49.213Z,58.40
2019-04-10T10:39:19.019Z,58.27
2019-04-10T10:41:48.872Z,52.23
2019-04-10T10:44:17.630Z,48.80
2019-04-10T10:46:45.948Z,63.47
2019-04-10T10:49:14.281Z,54.60
2019-04-10T10:51:42.669Z,46.40
2019-04-10T10:54:11.003Z,44.50
2019-04-10T10:56:39.330Z,43.80
2019-04-10T10:59:07.622Z,38.33
2019-04-10T11:01:35.920Z,37.77
2019-04-10T11:04:04.751Z,37.60
2019-04-10T11:06:33.239Z,34.33
2019-04-10T11:09:01.974Z,32.20
2019-04-10T11:11:30.794Z,32.57
2019-04-10T11:13:59.166Z,30.73
2019-04-10T11:16:27.474Z,29.80
2019-04-10T11:18:57.532Z,54.13
2019-04-10T11:21:27.404Z,62.83
2019-04-10T11:23:55.899Z,94.83
2019-04-10T11:26:25.610Z,81.97
2019-04-10T11:28:55.704Z,81.10
2019-04-10T11:31:25.186Z,76.07
2019-04-10T11:33:55.939Z,72.20
2019-04-10T11:36:28.068Z,70.13
2019-04-10T11:39:09.074Z,72.07
2019-04-10T11:41:26.598Z,63.67
2019-04-10T11:43:56.086Z,66.57
2019-04-10T11:46:28.280Z,87.07
2019-04-10T11:48:55.412Z,76.33
2019-04-10T11:51:26.332Z,80.90
2019-04-10T11:56:26.091Z,72.70
2019-04-10T11:58:56.489Z,68.70
2019-04-10T12:01:25.533Z,66.80
2019-04-10T12:03:56.050Z,69.30
2019-04-10T12:06:25.470Z,68.17
2019-04-10T12:11:24.741Z,63.73
2019-04-10T12:13:53.064Z,59.73
2019-04-10T12:16:21.643Z,61.53
2019-04-10T12:18:50.875Z,71.63
2019-04-10T12:21:19.870Z,79.43
2019-04-10T12:23:50.114Z,74.47
2019-04-10T12:26:18.491Z,67.37
2019-04-10T12:28:46.813Z,66.47
2019-04-10T12:31:15.624Z,64.43
2019-04-10T12:33:44.431Z,58.80
2019-04-10T12:36:14.117Z,58.30
2019-04-10T12:38:43.461Z,75.67
2019-04-10T12:41:12.296Z,67.60
2019-04-10T12:43:41.119Z,68.43
2019-04-10T12:46:10.677Z,63.70
2019-04-10T12:48:39.152Z,62.27
2019-04-10T12:51:07.727Z,61.93
2019-04-10T12:53:36.609Z,64.20
2019-04-10T12:56:05.965Z,59.40
2019-04-10T12:58:34.937Z,54.53
2019-04-10T13:01:05.266Z,54.40
2019-04-10T13:03:33.570Z,78.30
2019-04-10T13:06:02.125Z,63.63
2019-04-10T13:08:47.274Z,92.73
2019-04-10T13:11:01.132Z,67.90
2019-04-10T13:13:30.313Z,75.10
2019-04-10T13:15:59.398Z,73.73
2019-04-10T13:18:28.133Z,74.73
2019-04-10T13:20:56.518Z,67.97
2019-04-10T13:23:24.871Z,92.70
2019-04-10T13:25:58.101Z,90.47
2019-04-10T13:28:23.453Z,90.07
2019-04-10T13:30:54.104Z,83.07
2019-04-10T13:33:22.605Z,82.20
2019-04-10T13:35:51.347Z,83.57
2019-04-10T13:38:26.563Z,75.33
2019-04-10T13:40:50.391Z,76.83
2019-04-10T13:43:18.670Z,64.70
2019-04-10T13:45:46.976Z,57.83
2019-04-10T13:48:16.462Z,58.07
2019-04-10T13:50:44.906Z,75.30
2019-04-10T13:53:13.452Z,70.00
2019-04-10T13:55:42.263Z,79.53
2019-04-10T13:58:10.788Z,80.70
2019-04-10T14:00:59.218Z,73.30
2019-04-10T14:03:28.041Z,79.97
2019-04-10T14:05:57.084Z,71.83
2019-04-10T14:08:41.540Z,69.33
2019-04-10T14:10:57.210Z,66.23
2019-04-10T14:13:26.045Z,66.17
2019-04-10T14:15:54.594Z,99.10
2019-04-10T14:18:24.178Z,103.27
2019-04-10T14:20:53.405Z,112.57
2019-04-10T14:23:23.545Z,103.40
2019-04-10T14:25:53.482Z,100.60
2019-04-10T14:28:23.462Z,118.80
2019-04-10T14:30:53.738Z,148.80
2019-04-10T14:33:23.318Z,182.13
2019-04-10T14:35:52.115Z,186.27
2019-04-10T14:38:21.151Z,168.43
2019-04-10T14:40:49.576Z,151.07
2019-04-10T14:43:18.729Z,180.07
2019-04-10T14:45:48.021Z,197.03
2019-04-10T14:48:16.890Z,212.77
2019-04-10T14:50:46.993Z,210.27
2019-04-10T14:53:15.431Z,183.70
2019-04-10T14:55:43.943Z,183.50
2019-04-10T14:58:20.603Z,184.47
2019-04-10T15:00:47.015Z,169.10
2019-04-10T15:03:16.125Z,158.20
2019-04-10T15:05:49.785Z,150.73
2019-04-10T15:08:15.518Z,157.00
2019-04-10T15:10:44.477Z,137.80
2019-04-10T15:13:17.466Z,136.30
2019-04-10T15:15:42.970Z,136.20
2019-04-10T15:18:11.276Z,134.43
2019-04-10T15:20:39.731Z,140.10
2019-04-10T15:23:08.412Z,134.77
2019-04-10T15:25:37.458Z,137.13
2019-04-10T15:28:06.422Z,132.50
2019-04-10T15:30:34.874Z,127.60
2019-04-10T15:33:04.453Z,123.80
2019-04-10T15:35:33.001Z,124.70
2019-04-10T15:38:01.989Z,122.33
2019-04-10T15:40:30.391Z,126.47
2019-04-10T15:42:58.787Z,124.33
2019-04-10T15:45:28.111Z,114.80
2019-04-10T15:47:58.696Z,115.07
2019-04-10T15:50:26.645Z,120.70
2019-04-10T15:52:55.794Z,116.20
2019-04-10T15:55:25.743Z,105.83
2019-04-10T15:57:57.883Z,106.40
2019-04-10T16:00:25.353Z,107.27
2019-04-10T16:02:54.042Z,109.27
2019-04-10T16:05:23.667Z,106.93
2019-04-10T16:07:55.333Z,95.17
2019-04-10T16:10:33.943Z,89.00
2019-04-10T16:13:16.632Z,97.97
2019-04-10T16:15:45.253Z,111.40
2019-04-10T16:18:21.151Z,129.20
2019-04-10T16:20:51.114Z,143.60
2019-04-10T16:23:24.118Z,133.37
2019-04-10T16:25:54.446Z,167.67
2019-04-10T16:28:23.293Z,127.97
2019-04-10T16:30:51.726Z,134.67
2019-04-10T16:33:20.553Z,125.80
2019-04-10T16:35:48.856Z,118.93
2019-04-10T16:38:17.319Z,103.57
2019-04-10T16:40:46.040Z,96.70
2019-04-10T16:43:14.553Z,85.23
2019-04-10T16:45:43.126Z,78.03
2019-04-10T16:48:11.760Z,89.53
2019-04-10T16:50:40.052Z,79.73
2019-04-10T16:53:08.612Z,82.40
2019-04-10T16:55:38.386Z,72.50
2019-04-10T16:58:07.588Z,74.67
2019-04-10T17:00:36.196Z,72.13
2019-04-10T17:03:04.726Z,73.87
2019-04-10T17:05:35.020Z,67.17
2019-04-10T17:08:03.670Z,67.77
2019-04-10T17:10:32.421Z,65.43
2019-04-10T17:13:00.867Z,69.97
2019-04-10T17:15:30.207Z,58.53
2019-04-10T17:17:58.996Z,62.10
2019-04-10T17:20:28.663Z,53.63
2019-04-10T17:22:58.388Z,55.10
2019-04-10T17:25:26.915Z,50.93
2019-04-10T17:27:56.333Z,51.10
2019-04-10T17:30:25.475Z,52.93
2019-04-10T17:32:54.328Z,47.83
2019-04-10T17:35:23.368Z,49.10
2019-04-10T17:37:52.187Z,52.13
2019-04-10T17:40:30.015Z,48.87
2019-04-10T17:42:51.035Z,38.57
2019-04-10T17:45:20.603Z,41.83
2019-04-10T17:47:49.633Z,51.10
2019-04-10T17:50:20.292Z,51.30
2019-04-10T17:52:49.162Z,49.13
2019-04-10T17:55:17.654Z,64.83
2019-04-10T17:57:49.147Z,65.17
2019-04-10T18:00:22.981Z,53.37
2019-04-10T18:02:51.392Z,49.10
2019-04-10T18:05:20.384Z,42.27
2019-04-10T18:07:48.907Z,45.20
2019-04-10T18:10:17.362Z,49.83
2019-04-10T18:12:46.062Z,57.80
2019-04-10T18:15:15.756Z,56.80
2019-04-10T18:17:44.475Z,60.70
2019-04-10T18:20:12.846Z,57.83
2019-04-10T18:22:42.739Z,55.40
2019-04-10T18:25:11.920Z,55.73
2019-04-10T18:27:41.110Z,53.80
2019-04-10T18:30:09.996Z,55.73
2019-04-10T18:32:38.595Z,57.60
2019-04-10T18:35:08.758Z,54.50
2019-04-10T18:37:40.904Z,46.80
2019-04-10T18:40:10.757Z,43.77
2019-04-10T18:42:39.902Z,45.87
2019-04-10T18:45:28.112Z,40.30
2019-04-10T18:47:56.524Z,43.17
2019-04-10T18:50:24.908Z,38.13
2019-04-10T18:52:53.932Z,40.10
2019-04-10T18:55:22.610Z,38.07
2019-04-10T18:57:51.453Z,35.00
2019-04-10T19:00:21.845Z,34.17
2019-04-10T19:02:52.924Z,37.30
2019-04-10T19:05:23.512Z,38.47
2019-04-10T19:07:51.975Z,38.53
2019-04-10T19:10:20.294Z,38.13
2019-04-10T19:12:48.823Z,38.23
2019-04-10T19:15:17.347Z,39.33
2019-04-10T19:17:46.745Z,33.80
2019-04-10T19:20:15.932Z,38.50
2019-04-10T19:22:44.729Z,31.90
2019-04-10T19:25:14.566Z,37.60
2019-04-10T19:27:44.375Z,57.03
2019-04-10T19:30:23.519Z,39.57
2019-04-10T19:32:51.985Z,51.80
2019-04-10T19:35:21.146Z,62.20
2019-04-10T19:37:51.490Z,75.43
2019-04-10T19:40:21.222Z,65.53
2019-04-10T19:42:51.420Z,59.47
2019-04-10T19:45:20.458Z,52.47
2019-04-10T19:47:48.939Z,50.80
2019-04-10T19:50:17.671Z,50.30
2019-04-10T19:52:46.761Z,44.77
2019-04-10T19:55:15.637Z,43.23
2019-04-10T19:57:44.033Z,48.87
2019-04-10T20:00:12.622Z,43.57
2019-04-10T20:02:41.732Z,45.73
2019-04-10T20:05:10.140Z,52.77
2019-04-10T20:07:38.670Z,48.40
2019-04-10T20:10:07.370Z,52.60
2019-04-10T20:12:36.972Z,48.43
2019-04-10T20:15:07.213Z,49.73
2019-04-10T20:17:36.468Z,52.40
2019-04-10T20:20:08.050Z,44.63
2019-04-10T20:22:39.117Z,43.03
2019-04-10T20:25:08.282Z,45.03
2019-04-10T20:27:36.780Z,43.70
2019-04-10T20:30:08.074Z,41.23
2019-04-10T20:32:36.444Z,42.37
2019-04-10T20:35:05.754Z,44.17
2019-04-10T20:37:34.538Z,42.37
2019-04-10T20:40:03.493Z,37.43
2019-04-10T20:42:32.233Z,37.80
2019-04-10T20:45:00.903Z,40.90
2019-04-10T20:47:29.639Z,44.90
2019-04-10T20:49:57.950Z,43.37
2019-04-10T20:52:26.357Z,40.27
2019-04-10T20:54:55.273Z,42.63
2019-04-10T20:57:23.699Z,34.97
2019-04-10T20:59:53.225Z,38.83
2019-04-10T21:02:22.324Z,34.57
2019-04-10T21:04:56.395Z,24.90
2019-04-10T21:07:21.357Z,22.33
2019-04-10T21:09:50.321Z,22.37
2019-04-10T21:12:21.023Z,24.63
2019-04-10T21:14:49.506Z,31.20
2019-04-10T21:17:18.177Z,33.00
2019-04-10T21:19:46.549Z,30.60
2019-04-10T21:22:15.844Z,65.00
2019-04-10T21:24:45.549Z,62.50
2019-04-10T21:27:14.072Z,50.67
2019-04-10T21:29:46.819Z,33.77
2019-04-10T21:32:17.260Z,32.40
2019-04-10T21:34:47.334Z,32.30
2019-04-10T21:37:15.885Z,27.33
2019-04-10T21:39:45.585Z,33.97
2019-04-10T21:42:20.101Z,34.40
2019-04-10T21:44:44.961Z,25.27
2019-04-10T21:47:13.625Z,23.63
2019-04-10T21:49:42.264Z,31.93
2019-04-10T21:52:11.053Z,27.07
2019-04-10T21:54:48.517Z,24.53
2019-04-10T21:57:09.883Z,25.53
2019-04-10T21:59:38.894Z,23.57
2019-04-10T22:02:07.853Z,28.07
2019-04-10T22:04:36.228Z,34.17
2019-04-10T22:07:25.693Z,34.43
2019-04-10T22:10:05.554Z,51.63
2019-04-10T22:12:39.592Z,54.57
2019-04-10T22:15:08.620Z,109.53
2019-04-10T22:17:38.297Z,112.93
2019-04-10T22:20:07.572Z,104.23
2019-04-10T22:22:37.108Z,79.73
2019-04-10T22:25:07.404Z,81.20
2019-04-10T22:27:35.954Z,77.10
2019-04-10T22:30:06.389Z,72.97
2019-04-10T22:32:35.320Z,69.53
2019-04-10T22:35:05.575Z,63.73
2019-04-10T22:37:35.615Z,66.57
2019-04-10T22:40:06.489Z,68.53
2019-04-10T22:42:41.675Z,68.63
2019-04-10T22:45:12.223Z,57.90
2019-04-10T22:47:41.380Z,34.47
2019-04-10T22:50:10.651Z,29.67
2019-04-10T22:52:40.100Z,34.37
2019-04-10T22:55:09.156Z,37.73
2019-04-10T22:57:39.780Z,42.23
2019-04-10T23:00:07.830Z,44.83
2019-04-10T23:02:36.149Z,42.53
2019-04-10T23:05:04.708Z,44.57
2019-04-10T23:07:33.641Z,48.60
2019-04-10T23:10:02.608Z,42.97
2019-04-10T23:12:32.040Z,36.90
2019-04-10T23:15:00.831Z,35.33
2019-04-10T23:17:29.266Z,37.83
2019-04-10T23:19:58.528Z,46.87
2019-04-10T23:22:27.368Z,40.13
2019-04-10T23:24:58.214Z,42.77
2019-04-10T23:27:26.805Z,42.60
2019-04-10T23:29:55.507Z,38.27
2019-04-10T23:32:23.810Z,39.87
2019-04-10T23:34:52.731Z,41.33
2019-04-10T23:37:21.050Z,44.53
2019-04-10T23:39:51.000Z,36.10
2019-04-10T23:42:19.588Z,31.87
2019-04-10T23:44:47.902Z,37.13
2019-04-10T23:47:18.108Z,33.40
2019-04-10T23:49:47.844Z,34.17
2019-04-10T23:52:16.285Z,34.53
2019-04-10T23:54:45.800Z,36.63
2019-04-10T23:57:14.224Z,37.83
2019-04-10T23:59:42.671Z,35.23
